WXM80 ListenWXM80 Stop

You find our weather info also at:

UK Metoffice

WeatherCloud

Weather Underground

Northeastern Weather Network

AWEKAS

Citizen Weather Observer Program (CWOP)

HAMweather, WeatherForYou, PWS Weather


Weather Underground History page Text

Daily Summary for May 8, 2017 Units:  English    Metric   Both
« Previous Day
Next Day »
Daily Weekly Monthly Yearly Custom
  High: Low: Average:
Temperature: 61.2 °F 44.9 °F 52.4 °F
Dew Point: 41.2 °F 36.0 °F 38.5 °F
Humidity: 76 % 41 % 60 %
Wind Speed: 9.0 mph 0.0 mph 3.6 mph
Wind Gust: 18.4 mph - -
Wind:- - West
Pressure: 29.91 in 29.74 in -
Precipitation: 0.01 in    
Historical Graphs
 
 
Tabular Data for May 8, 2017
Time Temperature Dew Point Pressure Wind Wind Speed Wind Gust Humidity Rainfall Rate (Hourly)
00:01 48.0 °F 40.1 °F 29.74 in WNW 3.9 mph 9.2 mph 74 % 0.00 in
00:06 47.9 °F 40.0 °F 29.74 in West 3.2 mph 10.0 mph 74 % 0.00 in
00:11 47.9 °F 40.0 °F 29.74 in West 5.1 mph 10.4 mph 74 % 0.00 in
00:16 47.9 °F 40.0 °F 29.74 in West 6.6 mph 13.8 mph 74 % 0.00 in
00:21 47.9 °F 40.0 °F 29.75 in NW 5.9 mph 10.4 mph 74 % 0.00 in
00:26 47.8 °F 39.9 °F 29.75 in NW 3.9 mph 9.2 mph 74 % 0.00 in
00:31 47.7 °F 39.8 °F 29.74 in WNW 3.9 mph 6.0 mph 74 % 0.00 in
00:36 47.7 °F 40.2 °F 29.74 in West 4.1 mph 10.0 mph 75 % 0.00 in
00:41 47.6 °F 39.7 °F 29.74 in WNW 5.7 mph 10.0 mph 74 % 0.00 in
00:46 47.6 °F 39.7 °F 29.74 in West 4.5 mph 10.4 mph 74 % 0.00 in
00:51 47.6 °F 39.7 °F 29.74 in NW 4.6 mph 11.5 mph 74 % 0.00 in
00:56 47.6 °F 39.7 °F 29.74 in WNW 8.0 mph 11.5 mph 74 % 0.00 in
01:01 47.5 °F 39.6 °F 29.74 in WNW 3.3 mph 6.9 mph 74 % 0.00 in
01:06 47.4 °F 39.5 °F 29.74 in WSW 3.4 mph 10.4 mph 74 % 0.00 in
01:11 47.4 °F 39.5 °F 29.74 in WNW 5.9 mph 9.2 mph 74 % 0.00 in
01:16 47.4 °F 39.5 °F 29.74 in West 4.8 mph 11.5 mph 74 % 0.00 in
01:21 47.3 °F 39.4 °F 29.74 in WNW 2.8 mph 8.1 mph 74 % 0.00 in
01:26 47.3 °F 39.4 °F 29.75 in WNW 1.9 mph 5.0 mph 74 % 0.00 in
01:31 47.2 °F 39.3 °F 29.75 in West 5.0 mph 6.9 mph 74 % 0.00 in
01:37 47.2 °F 39.3 °F 29.74 in West 3.4 mph 8.0 mph 74 % 0.00 in
01:42 47.2 °F 39.3 °F 29.74 in WSW 5.2 mph 9.2 mph 74 % 0.00 in
01:47 47.1 °F 38.9 °F 29.75 in West 2.4 mph 5.8 mph 73 % 0.00 in
01:52 47.1 °F 38.9 °F 29.75 in West 1.3 mph 4.6 mph 73 % 0.00 in
01:57 47.1 °F 38.9 °F 29.75 in WSW 5.0 mph 10.4 mph 73 % 0.00 in
02:02 47.1 °F 38.9 °F 29.75 in West 2.5 mph 8.0 mph 73 % 0.00 in
02:07 47.0 °F 38.8 °F 29.75 in WSW 4.3 mph 9.2 mph 73 % 0.00 in
02:12 47.0 °F 38.8 °F 29.75 in WNW 5.0 mph 10.4 mph 73 % 0.00 in
02:17 47.0 °F 39.1 °F 29.75 in WNW 3.4 mph 9.2 mph 74 % 0.00 in
02:22 46.9 °F 39.0 °F 29.75 in SW 5.5 mph 12.7 mph 74 % 0.00 in
02:27 46.9 °F 39.0 °F 29.75 in WSW 4.1 mph 8.1 mph 74 % 0.00 in
02:32 46.8 °F 38.9 °F 29.75 in West 4.5 mph 9.2 mph 74 % 0.00 in
02:37 46.8 °F 38.9 °F 29.76 in West 3.3 mph 4.6 mph 74 % 0.00 in
02:42 46.8 °F 38.9 °F 29.76 in NW 4.3 mph 9.2 mph 74 % 0.00 in
02:47 46.7 °F 38.9 °F 29.75 in WSW 5.2 mph 10.0 mph 74 % 0.00 in
02:52 46.7 °F 38.9 °F 29.76 in West 3.5 mph 14.0 mph 74 % 0.00 in
02:57 46.7 °F 38.9 °F 29.76 in WSW 3.2 mph 6.9 mph 74 % 0.00 in
03:02 46.6 °F 38.8 °F 29.75 in WSW 3.7 mph 12.7 mph 74 % 0.00 in
03:07 46.6 °F 38.8 °F 29.76 in WNW 4.9 mph 6.9 mph 74 % 0.00 in
03:12 46.7 °F 38.9 °F 29.76 in SW 5.0 mph 6.9 mph 74 % 0.00 in
03:18 46.6 °F 38.4 °F 29.77 in SW 8.0 mph 12.7 mph 73 % 0.00 in
03:23 46.6 °F 38.4 °F 29.77 in SW 8.8 mph 11.0 mph 73 % 0.00 in
03:28 46.6 °F 38.4 °F 29.77 in WSW 4.2 mph 10.4 mph 73 % 0.00 in
03:33 46.5 °F 38.3 °F 29.77 in SW 6.3 mph 12.7 mph 73 % 0.00 in
03:38 46.5 °F 38.3 °F 29.77 in SSW 3.8 mph 8.1 mph 73 % 0.00 in
03:43 46.4 °F 38.2 °F 29.77 in West 6.0 mph 9.2 mph 73 % 0.00 in
03:48 46.4 °F 38.2 °F 29.77 in West 2.1 mph 6.9 mph 73 % 0.00 in
03:53 46.4 °F 38.6 °F 29.77 in SW 4.1 mph 11.5 mph 74 % 0.00 in
03:58 46.3 °F 38.1 °F 29.77 in SW 5.1 mph 9.2 mph 73 % 0.00 in
04:03 46.3 °F 38.5 °F 29.77 in WSW 5.8 mph 11.5 mph 74 % 0.00 in
04:08 46.2 °F 38.4 °F 29.78 in WNW 6.4 mph 11.5 mph 74 % 0.00 in
04:13 46.1 °F 38.6 °F 29.78 in WSW 5.4 mph 11.5 mph 75 % 0.00 in
04:18 46.1 °F 38.3 °F 29.77 in WNW 5.1 mph 8.1 mph 74 % 0.00 in
04:23 46.1 °F 38.3 °F 29.77 in WSW 7.7 mph 12.7 mph 74 % 0.00 in
04:28 46.0 °F 38.2 °F 29.77 in West 4.1 mph 7.0 mph 74 % 0.00 in
04:33 46.0 °F 38.2 °F 29.77 in WSW 4.2 mph 5.8 mph 74 % 0.00 in
04:38 45.9 °F 38.1 °F 29.77 in SW 5.5 mph 8.1 mph 74 % 0.00 in
04:43 45.8 °F 38.0 °F 29.77 in WNW 2.9 mph 6.9 mph 74 % 0.00 in
04:48 45.8 °F 38.3 °F 29.77 in WNW 4.2 mph 10.4 mph 75 % 0.00 in
04:53 45.8 °F 38.3 °F 29.78 in WSW 4.1 mph 7.0 mph 75 % 0.00 in
04:58 45.7 °F 38.2 °F 29.78 in WSW 4.4 mph 9.0 mph 75 % 0.00 in
05:03 45.6 °F 38.1 °F 29.78 in West 2.7 mph 9.2 mph 75 % 0.00 in
05:08 45.5 °F 38.4 °F 29.78 in WSW 4.1 mph 9.2 mph 76 % 0.00 in
05:14 45.4 °F 38.3 °F 29.78 in NW 3.4 mph 8.1 mph 76 % 0.00 in
05:19 45.4 °F 37.9 °F 29.78 in WSW 4.4 mph 6.9 mph 75 % 0.00 in
05:24 45.3 °F 37.8 °F 29.78 in WNW 2.8 mph 5.8 mph 75 % 0.00 in
05:29 45.2 °F 37.7 °F 29.79 in WNW 2.9 mph 7.0 mph 75 % 0.00 in
05:34 45.1 °F 37.6 °F 29.79 in WNW 4.4 mph 6.9 mph 75 % 0.00 in
05:39 45.0 °F 37.6 °F 29.79 in WNW 2.9 mph 6.9 mph 75 % 0.00 in
05:44 45.0 °F 37.6 °F 29.79 in West 5.0 mph 10.4 mph 75 % 0.00 in
05:49 44.9 °F 37.8 °F 29.79 in West 6.1 mph 10.4 mph 76 % 0.00 in
05:54 44.9 °F 37.8 °F 29.79 in SW 4.0 mph 11.5 mph 76 % 0.00 in
05:59 44.9 °F 37.8 °F 29.79 in SW 3.4 mph 8.1 mph 76 % 0.00 in
06:04 44.9 °F 37.8 °F 29.80 in West 5.9 mph 10.4 mph 76 % 0.00 in
06:09 44.9 °F 37.8 °F 29.80 in WNW 3.9 mph 8.1 mph 76 % 0.00 in
06:14 44.9 °F 37.8 °F 29.80 in NW 3.1 mph 8.1 mph 76 % 0.00 in
06:19 44.9 °F 37.8 °F 29.80 in WSW 4.4 mph 9.2 mph 76 % 0.00 in
06:24 45.0 °F 37.6 °F 29.81 in West 4.4 mph 8.1 mph 75 % 0.00 in
06:29 45.2 °F 37.7 °F 29.81 in WNW 3.3 mph 5.8 mph 75 % 0.00 in
06:34 45.3 °F 37.8 °F 29.81 in West 4.9 mph 9.2 mph 75 % 0.00 in
06:39 45.6 °F 38.1 °F 29.81 in West 5.8 mph 10.4 mph 75 % 0.00 in
06:44 45.8 °F 38.0 °F 29.81 in WSW 2.3 mph 6.9 mph 74 % 0.00 in
06:49 46.0 °F 38.5 °F 29.81 in WNW 1.7 mph 3.5 mph 75 % 0.00 in
06:54 46.4 °F 38.6 °F 29.81 in West 5.0 mph 9.0 mph 74 % 0.00 in
06:59 46.7 °F 38.9 °F 29.81 in WSW 3.9 mph 6.9 mph 74 % 0.00 in
07:04 47.0 °F 38.8 °F 29.82 in SW 4.9 mph 9.2 mph 73 % 0.00 in
07:09 47.3 °F 38.7 °F 29.82 in SW 2.9 mph 6.0 mph 72 % 0.00 in
07:14 47.6 °F 38.7 °F 29.82 in WNW 2.6 mph 6.9 mph 71 % 0.00 in
07:19 47.8 °F 38.8 °F 29.82 in WSW 4.3 mph 11.5 mph 71 % 0.00 in
07:24 48.1 °F 38.8 °F 29.82 in NW 1.9 mph 6.9 mph 70 % 0.00 in
07:29 48.3 °F 38.6 °F 29.82 in SW 5.7 mph 8.1 mph 69 % 0.00 in
07:34 48.3 °F 38.6 °F 29.82 in WNW 3.8 mph 5.8 mph 69 % 0.00 in
07:40 48.4 °F 38.7 °F 29.83 in West 4.0 mph 7.0 mph 69 % 0.00 in
07:45 48.5 °F 38.4 °F 29.82 in WSW 4.8 mph 8.0 mph 68 % 0.00 in
07:50 48.6 °F 38.5 °F 29.82 in NW 4.9 mph 8.1 mph 68 % 0.00 in
07:55 48.9 °F 39.2 °F 29.82 in WNW 5.3 mph 6.9 mph 69 % 0.00 in
08:00 49.1 °F 39.0 °F 29.82 in WSW 3.1 mph 6.9 mph 68 % 0.00 in
08:05 49.3 °F 38.8 °F 29.82 in NW 4.3 mph 11.5 mph 67 % 0.00 in
08:10 49.4 °F 38.5 °F 29.82 in SW 1.4 mph 3.5 mph 66 % 0.00 in
08:15 49.6 °F 39.5 °F 29.82 in West 7.4 mph 11.5 mph 68 % 0.00 in
08:20 49.7 °F 39.2 °F 29.82 in NW 7.3 mph 13.8 mph 67 % 0.00 in
08:25 49.8 °F 39.3 °F 29.83 in WSW 5.3 mph 9.2 mph 67 % 0.00 in
08:30 49.9 °F 39.0 °F 29.83 in WNW 7.1 mph 15.0 mph 66 % 0.00 in
08:35 49.9 °F 39.0 °F 29.82 in West 3.8 mph 10.4 mph 66 % 0.00 in
08:40 50.0 °F 39.5 °F 29.82 in West 3.4 mph 6.9 mph 67 % 0.00 in
08:45 50.3 °F 39.0 °F 29.83 in WNW 5.2 mph 11.5 mph 65 % 0.00 in
08:50 50.4 °F 39.1 °F 29.82 in West 6.3 mph 12.7 mph 65 % 0.00 in
08:55 50.6 °F 39.3 °F 29.83 in SSW 8.6 mph 11.5 mph 65 % 0.00 in
09:00 50.8 °F 39.1 °F 29.83 in SSW 4.8 mph 9.2 mph 64 % 0.00 in
09:05 50.9 °F 38.7 °F 29.83 in WSW 6.4 mph 11.5 mph 63 % 0.00 in
09:10 51.0 °F 39.2 °F 29.83 in South 3.4 mph 6.9 mph 64 % 0.00 in
09:15 51.2 °F 39.0 °F 29.83 in WNW 4.8 mph 7.0 mph 63 % 0.00 in
09:20 51.6 °F 39.4 °F 29.83 in WSW 6.1 mph 11.5 mph 63 % 0.00 in
09:25 52.0 °F 39.4 °F 29.83 in WSW 4.4 mph 10.4 mph 62 % 0.00 in
09:30 52.4 °F 39.3 °F 29.83 in NW 6.3 mph 17.3 mph 61 % 0.00 in
09:35 52.7 °F 39.2 °F 29.83 in WNW 7.2 mph 13.8 mph 60 % 0.00 in
09:40 52.9 °F 39.8 °F 29.83 in SW 3.3 mph 11.0 mph 61 % 0.00 in
09:45 53.1 °F 39.6 °F 29.83 in WSW 4.4 mph 12.7 mph 60 % 0.00 in
09:50 53.4 °F 40.3 °F 29.83 in SW 4.5 mph 6.9 mph 61 % 0.00 in
09:55 53.7 °F 39.7 °F 29.83 in NW 3.1 mph 9.2 mph 59 % 0.00 in
10:01 53.8 °F 39.8 °F 29.83 in WSW 5.5 mph 6.9 mph 59 % 0.00 in
10:06 54.0 °F 39.5 °F 29.83 in West 3.7 mph 10.4 mph 58 % 0.00 in
10:11 54.2 °F 38.4 °F 29.83 in West 2.5 mph 8.1 mph 55 % 0.00 in
10:16 54.5 °F 38.2 °F 29.83 in WSW 6.0 mph 12.0 mph 54 % 0.00 in
10:21 54.7 °F 38.4 °F 29.83 in West 6.0 mph 16.0 mph 54 % 0.00 in
10:26 55.1 °F 38.3 °F 29.83 in West 9.0 mph 14.0 mph 53 % 0.00 in
10:31 55.3 °F 39.4 °F 29.83 in NW 5.0 mph 8.1 mph 55 % 0.00 in
10:36 55.5 °F 38.7 °F 29.83 in WNW 5.0 mph 12.0 mph 53 % 0.00 in
10:41 56.2 °F 40.3 °F 29.83 in WNW 5.0 mph 12.0 mph 55 % 0.00 in
10:46 56.5 °F 38.6 °F 29.83 in West 3.0 mph 12.0 mph 51 % 0.00 in
10:51 56.8 °F 38.9 °F 29.83 in West 5.0 mph 14.0 mph 51 % 0.00 in
10:56 57.1 °F 39.6 °F 29.83 in West 5.0 mph 14.0 mph 52 % 0.00 in
10:57 57.2 °F 38.7 °F 29.83 in NW 4.5 mph 9.2 mph 50 % 0.00 in
11:02 57.3 °F 38.3 °F 29.83 in WSW 7.4 mph 12.0 mph 49 % 0.00 in
11:07 57.7 °F 38.7 °F 29.83 in WSW 8.1 mph 16.1 mph 49 % 0.00 in
11:12 57.8 °F 38.2 °F 29.83 in SW 6.5 mph 13.8 mph 48 % 0.00 in
11:17 57.6 °F 37.0 °F 29.83 in West 9.0 mph 13.0 mph 46 % 0.00 in
11:23 57.3 °F 37.2 °F 29.83 in NW 7.2 mph 9.2 mph 47 % 0.00 in
11:28 57.2 °F 36.6 °F 29.83 in SSW 5.8 mph 11.5 mph 46 % 0.00 in
11:33 57.5 °F 37.9 °F 29.83 in West 6.7 mph 11.5 mph 48 % 0.00 in
11:38 57.8 °F 39.3 °F 29.83 in WSW 4.7 mph 10.0 mph 50 % 0.00 in
11:43 58.2 °F 38.1 °F 29.83 in SW 2.8 mph 10.4 mph 47 % 0.00 in
11:48 58.2 °F 37.5 °F 29.83 in WSW 6.0 mph 10.4 mph 46 % 0.00 in
11:53 58.4 °F 38.8 °F 29.83 in WNW 6.7 mph 10.0 mph 48 % 0.00 in
11:58 58.6 °F 36.7 °F 29.83 in NW 6.3 mph 12.7 mph 44 % 0.00 in
12:03 58.8 °F 36.9 °F 29.83 in WNW 8.4 mph 15.0 mph 44 % 0.00 in
12:08 58.9 °F 38.1 °F 29.83 in WSW 5.9 mph 12.0 mph 46 % 0.00 in
12:13 58.8 °F 36.9 °F 29.83 in SW 7.7 mph 11.5 mph 44 % 0.00 in
12:18 58.9 °F 38.1 °F 29.83 in WNW 6.9 mph 15.0 mph 46 % 0.00 in
12:23 58.9 °F 37.0 °F 29.83 in WNW 7.9 mph 13.8 mph 44 % 0.00 in
12:28 58.6 °F 36.7 °F 29.83 in WSW 7.7 mph 14.0 mph 44 % 0.00 in
12:33 58.5 °F 37.2 °F 29.83 in SW 7.2 mph 13.8 mph 45 % 0.00 in
12:38 58.4 °F 36.6 °F 29.83 in WNW 8.6 mph 11.5 mph 44 % 0.00 in
12:43 58.5 °F 37.2 °F 29.83 in WNW 7.5 mph 13.0 mph 45 % 0.00 in
12:48 58.3 °F 37.0 °F 29.83 in WSW 5.3 mph 11.5 mph 45 % 0.00 in
12:53 58.0 °F 36.8 °F 29.83 in WNW 5.2 mph 10.4 mph 45 % 0.00 in
12:58 58.2 °F 36.4 °F 29.82 in West 7.0 mph 11.5 mph 44 % 0.00 in
13:03 58.5 °F 36.1 °F 29.83 in WSW 8.1 mph 16.1 mph 43 % 0.00 in
13:08 58.2 °F 36.4 °F 29.82 in WNW 5.9 mph 18.0 mph 44 % 0.00 in
13:13 57.8 °F 36.0 °F 29.82 in West 4.9 mph 11.5 mph 44 % 0.00 in
13:18 57.7 °F 37.0 °F 29.82 in WSW 4.3 mph 11.5 mph 46 % 0.00 in
13:23 57.8 °F 36.6 °F 29.82 in WNW 3.0 mph 13.8 mph 45 % 0.00 in
13:28 58.0 °F 37.3 °F 29.82 in WNW 6.1 mph 13.0 mph 46 % 0.00 in
13:34 58.2 °F 36.9 °F 29.82 in WNW 6.9 mph 13.8 mph 45 % 0.00 in
13:39 58.4 °F 36.6 °F 29.82 in WNW 4.3 mph 18.4 mph 44 % 0.00 in
13:44 58.6 °F 36.7 °F 29.82 in NNW 8.5 mph 14.0 mph 44 % 0.01 in
13:49 58.8 °F 37.5 °F 29.82 in NW 5.9 mph 11.5 mph 45 % 0.01 in
13:54 59.2 °F 37.9 °F 29.82 in SW 8.3 mph 13.8 mph 45 % 0.01 in
13:59 59.4 °F 37.5 °F 29.83 in NNW 6.8 mph 13.8 mph 44 % 0.01 in
14:04 59.6 °F 37.6 °F 29.82 in WNW 6.4 mph 12.0 mph 44 % 0.01 in
14:09 59.8 °F 39.0 °F 29.83 in West 4.8 mph 11.5 mph 46 % 0.01 in
14:14 60.0 °F 38.0 °F 29.83 in West 5.2 mph 15.0 mph 44 % 0.01 in
14:19 59.9 °F 37.9 °F 29.83 in WNW 3.7 mph 11.0 mph 44 % 0.01 in
14:24 59.6 °F 36.5 °F 29.83 in WNW 7.2 mph 11.5 mph 42 % 0.01 in
14:29 59.3 °F 37.4 °F 29.83 in West 8.4 mph 15.0 mph 44 % 0.01 in
14:34 59.1 °F 36.6 °F 29.83 in West 3.5 mph 11.5 mph 43 % 0.01 in
14:39 59.2 °F 37.9 °F 29.83 in WNW 3.4 mph 9.2 mph 45 % 0.01 in
14:44 59.3 °F 36.8 °F 29.83 in SW 7.8 mph 8.1 mph 43 % 0.00 in
14:49 59.0 °F 37.1 °F 29.83 in NW 6.0 mph 13.8 mph 44 % 0.00 in
14:55 59.0 °F 37.1 °F 29.83 in WNW 5.4 mph 9.2 mph 44 % 0.00 in
15:00 59.5 °F 39.2 °F 29.83 in West 4.4 mph 8.1 mph 47 % 0.00 in
15:05 59.8 °F 37.8 °F 29.83 in WNW 7.1 mph 11.0 mph 44 % 0.00 in
15:10 60.0 °F 39.7 °F 29.82 in NW 1.6 mph 6.9 mph 47 % 0.00 in
15:15 60.4 °F 38.9 °F 29.83 in WNW 4.9 mph 15.0 mph 45 % 0.00 in
15:20 60.6 °F 38.0 °F 29.83 in WNW 6.0 mph 15.0 mph 43 % 0.00 in
15:25 60.8 °F 38.1 °F 29.83 in WNW 5.5 mph 9.2 mph 43 % 0.00 in
15:30 61.0 °F 39.5 °F 29.83 in West 3.6 mph 9.2 mph 45 % 0.00 in
15:35 61.0 °F 39.5 °F 29.83 in NW 3.2 mph 7.0 mph 45 % 0.00 in
15:40 61.1 °F 39.0 °F 29.83 in NW 3.2 mph 6.9 mph 44 % 0.00 in
15:45 61.1 °F 39.6 °F 29.83 in WNW 3.8 mph 11.5 mph 45 % 0.00 in
15:50 61.1 °F 39.6 °F 29.83 in NW 2.1 mph 8.1 mph 45 % 0.00 in
15:55 61.2 °F 39.1 °F 29.83 in WNW 5.9 mph 11.5 mph 44 % 0.00 in
16:00 61.1 °F 39.6 °F 29.83 in WNW 0.8 mph 6.9 mph 45 % 0.00 in
16:05 61.1 °F 40.1 °F 29.83 in NNW 2.9 mph 6.9 mph 46 % 0.00 in
16:10 61.1 °F 38.4 °F 29.83 in NW 2.6 mph 5.8 mph 43 % 0.00 in
16:15 61.0 °F 38.3 °F 29.83 in NW 4.4 mph 8.1 mph 43 % 0.00 in
16:20 60.9 °F 38.2 °F 29.83 in NW 2.6 mph 4.6 mph 43 % 0.00 in
16:25 60.9 °F 40.0 °F 29.83 in NW 2.6 mph 5.0 mph 46 % 0.00 in
16:30 60.9 °F 37.6 °F 29.84 in NW 4.2 mph 8.1 mph 42 % 0.00 in
16:36 60.9 °F 37.6 °F 29.84 in North 3.4 mph 5.0 mph 42 % 0.00 in
16:41 60.8 °F 39.4 °F 29.84 in NNW 3.0 mph 6.0 mph 45 % 0.00 in
16:46 60.8 °F 38.1 °F 29.84 in North 2.1 mph 4.6 mph 43 % 0.00 in
16:51 60.7 °F 39.2 °F 29.84 in NNW 2.0 mph 6.0 mph 45 % 0.00 in
16:56 60.7 °F 38.6 °F 29.84 in NNW 2.0 mph 7.0 mph 44 % 0.00 in
17:01 60.7 °F 37.5 °F 29.84 in NNW 2.9 mph 5.8 mph 42 % 0.00 in
17:06 60.6 °F 37.4 °F 29.84 in NW 2.0 mph 5.8 mph 42 % 0.00 in
17:11 60.3 °F 37.1 °F 29.84 in NNW 2.1 mph 3.5 mph 42 % 0.00 in
17:16 59.8 °F 36.0 °F 29.84 in NW 1.7 mph 3.5 mph 41 % 0.00 in
17:21 59.4 °F 38.0 °F 29.84 in WNW 2.1 mph 4.6 mph 45 % 0.00 in
17:26 59.2 °F 37.9 °F 29.84 in NW 3.0 mph 5.0 mph 45 % 0.00 in
17:31 59.0 °F 37.1 °F 29.84 in WNW 2.9 mph 4.6 mph 44 % 0.00 in
17:36 58.9 °F 39.2 °F 29.84 in NW 0.5 mph 1.2 mph 48 % 0.00 in
17:41 58.6 °F 39.5 °F 29.84 in WNW 2.5 mph 3.5 mph 49 % 0.00 in
17:46 58.3 °F 38.1 °F 29.84 in NNW 1.6 mph 4.6 mph 47 % 0.00 in
17:51 57.9 °F 37.2 °F 29.84 in NW 3.3 mph 5.8 mph 46 % 0.00 in
17:57 57.7 °F 38.7 °F 29.84 in NW 1.7 mph 3.5 mph 49 % 0.00 in
18:02 57.5 °F 39.0 °F 29.84 in NW 0.1 mph 1.2 mph 50 % 0.00 in
18:07 57.4 °F 38.9 °F 29.85 in NW 0.2 mph 3.5 mph 50 % 0.00 in
18:12 57.3 °F 39.8 °F 29.85 in NW 2.2 mph 4.0 mph 52 % 0.00 in
18:17 57.1 °F 37.6 °F 29.85 in WNW 1.3 mph 4.0 mph 48 % 0.00 in
18:22 57.0 °F 37.0 °F 29.85 in WNW 1.6 mph 3.5 mph 47 % 0.00 in
18:27 57.0 °F 38.0 °F 29.85 in NW 0.4 mph 2.3 mph 49 % 0.00 in
18:28 56.9 °F 38.4 °F 29.85 in NW 0.4 mph 2.3 mph 50 % 0.00 in
18:33 56.9 °F 37.4 °F 29.85 in NW 1.1 mph 3.5 mph 48 % 0.00 in
18:38 56.8 °F 37.3 °F 29.85 in NW 0.6 mph 1.2 mph 48 % 0.00 in
18:43 56.7 °F 38.3 °F 29.85 in NW 0.4 mph 1.2 mph 50 % 0.00 in
18:49 56.6 °F 37.1 °F 29.86 in Calm   3.5 mph 48 % 0.00 in
18:54 56.4 °F 37.5 °F 29.86 in Calm   1.2 mph 49 % 0.00 in
18:59 56.3 °F 37.9 °F 29.86 in NW 0.1 mph 1.2 mph 50 % 0.00 in
19:04 56.1 °F 37.2 °F 29.86 in Calm   1.2 mph 49 % 0.00 in
19:09 55.9 °F 37.5 °F 29.86 in Calm     50 % 0.00 in
19:14 55.7 °F 37.3 °F 29.86 in Calm   1.0 mph 50 % 0.00 in
19:19 55.5 °F 38.1 °F 29.86 in Calm     52 % 0.00 in
19:24 55.3 °F 37.5 °F 29.87 in Calm     51 % 0.00 in
19:29 55.1 °F 37.3 °F 29.87 in Calm     51 % 0.00 in
19:34 54.9 °F 37.1 °F 29.87 in Calm     51 % 0.00 in
19:39 54.7 °F 36.9 °F 29.86 in Calm     51 % 0.00 in
19:44 54.5 °F 37.2 °F 29.87 in Calm     52 % 0.00 in
19:49 54.2 °F 37.9 °F 29.87 in Calm     54 % 0.00 in
19:54 53.9 °F 38.1 °F 29.87 in Calm     55 % 0.00 in
19:59 53.6 °F 38.3 °F 29.87 in Calm     56 % 0.00 in
20:04 53.3 °F 38.4 °F 29.87 in Calm     57 % 0.00 in
20:09 52.8 °F 38.9 °F 29.87 in Calm     59 % 0.00 in
20:14 52.4 °F 38.9 °F 29.87 in Calm     60 % 0.00 in
20:19 52.0 °F 38.5 °F 29.87 in Calm     60 % 0.00 in
20:24 51.7 °F 38.3 °F 29.87 in Calm     60 % 0.00 in
20:29 51.4 °F 38.4 °F 29.87 in Calm     61 % 0.00 in
20:34 51.2 °F 37.8 °F 29.87 in Calm     60 % 0.00 in
20:39 51.0 °F 38.0 °F 29.87 in Calm     61 % 0.00 in
20:44 50.8 °F 37.8 °F 29.88 in Calm     61 % 0.00 in
20:49 50.6 °F 38.1 °F 29.87 in Calm     62 % 0.00 in
20:54 50.4 °F 37.9 °F 29.87 in Calm     62 % 0.00 in
20:59 50.3 °F 38.2 °F 29.87 in Calm     63 % 0.00 in
21:04 50.1 °F 38.0 °F 29.87 in Calm     63 % 0.00 in
21:09 50.0 °F 38.3 °F 29.88 in Calm     64 % 0.00 in
21:14 49.9 °F 38.2 °F 29.88 in Calm     64 % 0.00 in
21:19 49.9 °F 38.6 °F 29.88 in Calm     65 % 0.00 in
21:24 49.8 °F 38.5 °F 29.88 in Calm     65 % 0.00 in
21:29 49.7 °F 38.4 °F 29.88 in Calm     65 % 0.00 in
21:34 49.7 °F 38.8 °F 29.88 in Calm     66 % 0.00 in
21:39 49.6 °F 38.3 °F 29.89 in Calm     65 % 0.00 in
21:44 49.6 °F 39.1 °F 29.89 in Calm     67 % 0.00 in
21:49 49.6 °F 39.1 °F 29.89 in Calm     67 % 0.00 in
21:54 49.5 °F 39.4 °F 29.89 in Calm     68 % 0.00 in
21:59 49.4 °F 39.3 °F 29.89 in NW 0.4 mph 1.2 mph 68 % 0.00 in
22:05 49.4 °F 39.7 °F 29.89 in Calm     69 % 0.00 in
22:10 49.2 °F 39.5 °F 29.89 in Calm   1.2 mph 69 % 0.00 in
22:15 49.2 °F 39.5 °F 29.89 in Calm     69 % 0.00 in
22:20 49.1 °F 39.4 °F 29.90 in Calm     69 % 0.00 in
22:25 49.0 °F 38.9 °F 29.90 in Calm     68 % 0.00 in
22:30 48.9 °F 38.4 °F 29.90 in Calm     67 % 0.00 in
22:35 48.9 °F 39.2 °F 29.89 in Calm     69 % 0.00 in
22:40 48.8 °F 39.8 °F 29.90 in Calm     71 % 0.00 in
22:45 48.7 °F 39.7 °F 29.90 in Calm     71 % 0.00 in
22:50 48.6 °F 40.3 °F 29.90 in NNE 0.6 mph 3.5 mph 73 % 0.00 in
22:55 48.7 °F 40.8 °F 29.90 in NE 2.3 mph 3.5 mph 74 % 0.00 in
23:00 48.8 °F 40.2 °F 29.90 in NE 2.5 mph 3.5 mph 72 % 0.00 in
23:05 49.1 °F 40.5 °F 29.90 in ENE 3.6 mph 4.6 mph 72 % 0.00 in
23:10 49.5 °F 39.7 °F 29.90 in ENE 3.5 mph 5.8 mph 69 % 0.00 in
23:15 49.7 °F 39.6 °F 29.90 in ENE 2.0 mph 4.0 mph 68 % 0.00 in
23:20 50.0 °F 39.8 °F 29.90 in ENE 1.2 mph 2.3 mph 68 % 0.00 in
23:25 50.2 °F 40.0 °F 29.90 in ENE 1.1 mph 2.3 mph 68 % 0.00 in
23:30 50.4 °F 41.0 °F 29.91 in NE 2.5 mph 4.0 mph 70 % 0.00 in
23:35 50.5 °F 40.7 °F 29.91 in NE 1.8 mph 3.5 mph 69 % 0.00 in
23:40 50.6 °F 41.2 °F 29.91 in ENE 1.9 mph 3.5 mph 70 % 0.00 in
23:45 50.6 °F 40.8 °F 29.91 in ENE 1.9 mph 3.5 mph 69 % 0.00 in
23:50 50.7 °F 40.1 °F 29.91 in ENE 2.2 mph 3.5 mph 67 % 0.00 in
23:55 50.8 °F 41.0 °F 29.91 in ENE 1.4 mph 2.3 mph 69 % 0.00 in
Crab Meadow Weather
Compliments of Weather Underground - 3 mb

Script developed by  Jim McMurry - jmcmurry@mwt.net Adapted for the template by  Wim van der Kuil - Leuven-Template.eu

Extremes: A record low of - 128.6 degrees F was recorded at Vostok, Antarctica.